Terminal Aerodrome Forecast
Issued by NWS Charleston, WV

Current Version | Previous Version | Text Only | Print | Product List | Glossary Off
Versions: 1 2 3 4 5 6 7 8 9 10 11 12 13 14 15 16 17 18 19 20 21 22 23 24

426
FTUS41 KRLX 240250 AAA
TAFEKN
TAF AMD
KEKN 240250Z 2403/2424 VRB03KT P6SM OVC050
     FM240700 VRB03KT 6SM -RA OVC035
     FM241300 12007G16KT 6SM -RA OVC025=

USA.gov is the U.S. government's official web portal to all federal, state and local government web resources and services.